sensor_id;sensor_type;location;lat;lon;timestamp;pressure;altitude;pressure_sealevel;temperature;humidity
67015;BME280;1033;52.560;13.374;2023-10-13T00:00:36;100861.13;;;13.76;100.00
67015;BME280;1033;52.560;13.374;2023-10-13T00:03:05;100864.47;;;13.78;100.00
67015;BME280;1033;52.560;13.374;2023-10-13T00:05:34;100864.63;;;13.83;100.00
67015;BME280;1033;52.560;13.374;2023-10-13T00:08:04;100865.47;;;13.83;100.00
67015;BME280;1033;52.560;13.374;2023-10-13T00:10:33;100867.19;;;13.78;100.00
67015;BME280;1033;52.560;13.374;2023-10-13T00:13:02;100861.91;;;13.83;100.00
67015;BME280;1033;52.560;13.374;2023-10-13T00:15:41;100861.38;;;13.74;100.00
67015;BME280;1033;52.560;13.374;2023-10-13T00:18:19;100851.47;;;13.80;100.00
67015;BME280;1033;52.560;13.374;2023-10-13T00:20:50;100846.47;;;13.77;100.00
67015;BME280;1033;52.560;13.374;2023-10-13T00:23:18;100848.75;;;13.80;100.00
67015;BME280;1033;52.560;13.374;2023-10-13T00:25:49;100853.75;;;13.83;100.00
67015;BME280;1033;52.560;13.374;2023-10-13T00:28:25;100851.28;;;13.75;100.00
67015;BME280;1033;52.560;13.374;2023-10-13T00:30:56;100850.09;;;13.71;100.00
67015;BME280;1033;52.560;13.374;2023-10-13T00:33:30;100837.31;;;13.71;100.00
67015;BME280;1033;52.560;13.374;2023-10-13T00:36:00;100831.28;;;13.69;100.00
67015;BME280;1033;52.560;13.374;2023-10-13T00:38:29;100841.34;;;13.69;100.00
67015;BME280;1033;52.560;13.374;2023-10-13T00:40:57;100833.78;;;13.71;100.00
67015;BME280;1033;52.560;13.374;2023-10-13T00:43:31;100828.00;;;13.61;100.00
67015;BME280;1033;52.560;13.374;2023-10-13T00:46:03;100825.91;;;13.63;100.00
67015;BME280;1033;52.560;13.374;2023-10-13T00:48:37;100824.19;;;13.68;100.00
67015;BME280;1033;52.560;13.374;2023-10-13T00:51:19;100818.66;;;13.75;100.00
67015;BME280;1033;52.560;13.374;2023-10-13T00:54:02;100824.09;;;13.75;100.00
67015;BME280;1033;52.560;13.374;2023-10-13T00:56:35;100825.25;;;13.67;100.00
67015;BME280;1033;52.560;13.374;2023-10-13T00:59:08;100820.78;;;13.73;100.00
67015;BME280;1033;52.560;13.374;2023-10-13T01:01:39;100831.06;;;13.71;100.00
67015;BME280;1033;52.560;13.374;2023-10-13T01:04:11;100826.22;;;13.73;100.00
67015;BME280;1033;52.560;13.374;2023-10-13T01:06:42;100828.78;;;13.68;100.00
67015;BME280;1033;52.560;13.374;2023-10-13T01:09:11;100836.22;;;13.79;100.00
67015;BME280;1033;52.560;13.374;2023-10-13T01:11:44;100834.22;;;13.68;100.00
67015;BME280;1033;52.560;13.374;2023-10-13T01:14:12;100827.13;;;13.67;100.00
67015;BME280;1033;52.560;13.374;2023-10-13T01:16:47;100820.94;;;13.60;100.00
67015;BME280;1033;52.560;13.374;2023-10-13T01:19:16;100817.13;;;13.61;100.00
67015;BME280;1033;52.560;13.374;2023-10-13T01:21:48;100812.00;;;13.71;100.00
67015;BME280;1033;52.560;13.374;2023-10-13T01:24:17;100811.59;;;13.74;100.00
67015;BME280;1033;52.560;13.374;2023-10-13T01:26:53;100820.00;;;13.66;100.00
67015;BME280;1033;52.560;13.374;2023-10-13T01:29:21;100822.06;;;13.70;100.00
67015;BME280;1033;52.560;13.374;2023-10-13T01:31:56;100827.50;;;13.70;100.00
67015;BME280;1033;52.560;13.374;2023-10-13T01:34:24;100825.28;;;13.61;100.00
67015;BME280;1033;52.560;13.374;2023-10-13T01:36:54;100830.47;;;13.69;100.00
67015;BME280;1033;52.560;13.374;2023-10-13T01:39:24;100828.41;;;13.64;100.00
67015;BME280;1033;52.560;13.374;2023-10-13T01:41:54;100831.56;;;13.61;100.00
67015;BME280;1033;52.560;13.374;2023-10-13T01:44:24;100824.56;;;13.72;100.00
67015;BME280;1033;52.560;13.374;2023-10-13T01:46:55;100827.50;;;13.70;100.00
67015;BME280;1033;52.560;13.374;2023-10-13T01:49:27;100823.72;;;13.71;100.00
67015;BME280;1033;52.560;13.374;2023-10-13T01:51:56;100824.03;;;13.63;100.00
67015;BME280;1033;52.560;13.374;2023-10-13T01:54:32;100822.56;;;13.61;100.00
67015;BME280;1033;52.560;13.374;2023-10-13T01:57:00;100822.19;;;13.57;100.00
67015;BME280;1033;52.560;13.374;2023-10-13T01:59:31;100817.91;;;13.68;100.00
67015;BME280;1033;52.560;13.374;2023-10-13T02:01:59;100816.56;;;13.77;100.00
67015;BME280;1033;52.560;13.374;2023-10-13T02:04:29;100824.41;;;13.85;100.00
67015;BME280;1033;52.560;13.374;2023-10-13T02:07:00;100823.06;;;13.76;100.00
67015;BME280;1033;52.560;13.374;2023-10-13T02:09:30;100816.03;;;13.68;100.00
67015;BME280;1033;52.560;13.374;2023-10-13T02:11:58;100803.34;;;13.80;100.00
67015;BME280;1033;52.560;13.374;2023-10-13T02:14:27;100807.66;;;13.70;100.00
67015;BME280;1033;52.560;13.374;2023-10-13T02:16:55;100803.44;;;13.74;100.00
67015;BME280;1033;52.560;13.374;2023-10-13T02:19:39;100794.81;;;13.77;100.00
67015;BME280;1033;52.560;13.374;2023-10-13T02:22:12;100779.25;;;13.84;100.00
67015;BME280;1033;52.560;13.374;2023-10-13T02:24:54;100770.31;;;13.77;100.00
67015;BME280;1033;52.560;13.374;2023-10-13T02:27:29;100757.34;;;13.79;100.00
67015;BME280;1033;52.560;13.374;2023-10-13T02:30:09;100759.75;;;13.69;100.00
67015;BME280;1033;52.560;13.374;2023-10-13T02:32:41;100770.47;;;13.82;100.00
67015;BME280;1033;52.560;13.374;2023-10-13T02:35:11;100777.44;;;13.78;100.00
67015;BME280;1033;52.560;13.374;2023-10-13T02:37:43;100777.28;;;13.73;100.00
67015;BME280;1033;52.560;13.374;2023-10-13T02:40:23;100765.78;;;13.71;100.00
67015;BME280;1033;52.560;13.374;2023-10-13T02:42:51;100764.56;;;13.85;100.00
67015;BME280;1033;52.560;13.374;2023-10-13T02:45:19;100772.16;;;13.83;100.00
67015;BME280;1033;52.560;13.374;2023-10-13T02:47:53;100768.66;;;13.76;100.00
67015;BME280;1033;52.560;13.374;2023-10-13T02:50:40;100762.22;;;13.70;100.00
67015;BME280;1033;52.560;13.374;2023-10-13T02:53:11;100765.34;;;13.92;100.00
67015;BME280;1033;52.560;13.374;2023-10-13T02:55:54;100761.28;;;13.83;100.00
67015;BME280;1033;52.560;13.374;2023-10-13T02:58:24;100757.50;;;13.84;100.00
67015;BME280;1033;52.560;13.374;2023-10-13T03:01:06;100759.13;;;13.85;100.00
67015;BME280;1033;52.560;13.374;2023-10-13T03:03:47;100750.47;;;13.76;100.00
67015;BME280;1033;52.560;13.374;2023-10-13T03:06:18;100739.94;;;13.80;100.00
67015;BME280;1033;52.560;13.374;2023-10-13T03:08:49;100738.75;;;13.76;100.00
67015;BME280;1033;52.560;13.374;2023-10-13T03:11:19;100741.75;;;13.86;100.00
67015;BME280;1033;52.560;13.374;2023-10-13T03:13:51;100734.91;;;13.83;100.00
67015;BME280;1033;52.560;13.374;2023-10-13T03:16:20;100735.22;;;13.93;100.00
67015;BME280;1033;52.560;13.374;2023-10-13T03:18:49;100721.66;;;13.87;100.00
67015;BME280;1033;52.560;13.374;2023-10-13T03:21:24;100724.19;;;13.88;100.00
67015;BME280;1033;52.560;13.374;2023-10-13T03:23:59;100714.81;;;13.84;100.00
67015;BME280;1033;52.560;13.374;2023-10-13T03:26:35;100717.75;;;13.83;100.00
67015;BME280;1033;52.560;13.374;2023-10-13T03:29:04;100719.47;;;13.96;100.00
67015;BME280;1033;52.560;13.374;2023-10-13T03:31:36;100710.94;;;13.92;100.00
67015;BME280;1033;52.560;13.374;2023-10-13T03:34:06;100712.91;;;13.85;100.00
67015;BME280;1033;52.560;13.374;2023-10-13T03:36:39;100697.47;;;13.97;100.00
67015;BME280;1033;52.560;13.374;2023-10-13T03:39:27;100689.53;;;13.96;100.00
67015;BME280;1033;52.560;13.374;2023-10-13T03:41:59;100685.41;;;13.93;100.00
67015;BME280;1033;52.560;13.374;2023-10-13T03:44:28;100679.97;;;13.93;100.00
67015;BME280;1033;52.560;13.374;2023-10-13T03:46:58;100667.41;;;13.92;100.00
67015;BME280;1033;52.560;13.374;2023-10-13T03:49:46;100671.56;;;13.94;100.00
67015;BME280;1033;52.560;13.374;2023-10-13T03:52:18;100680.25;;;14.03;100.00
67015;BME280;1033;52.560;13.374;2023-10-13T03:54:50;100679.72;;;13.94;100.00
67015;BME280;1033;52.560;13.374;2023-10-13T03:57:20;100671.47;;;14.01;100.00
67015;BME280;1033;52.560;13.374;2023-10-13T03:59:53;100667.91;;;14.01;100.00
67015;BME280;1033;52.560;13.374;2023-10-13T04:02:23;100664.63;;;13.99;100.00
67015;BME280;1033;52.560;13.374;2023-10-13T04:04:55;100658.50;;;14.03;100.00
67015;BME280;1033;52.560;13.374;2023-10-13T04:07:35;100659.81;;;14.12;100.00
67015;BME280;1033;52.560;13.374;2023-10-13T04:10:29;100668.06;;;14.06;100.00
67015;BME280;1033;52.560;13.374;2023-10-13T04:13:28;100661.09;;;14.10;100.00
67015;BME280;1033;52.560;13.374;2023-10-13T04:16:14;100673.31;;;14.19;100.00
67015;BME280;1033;52.560;13.374;2023-10-13T04:19:02;100677.19;;;14.11;100.00
67015;BME280;1033;52.560;13.374;2023-10-13T04:21:38;100673.28;;;14.07;100.00
67015;BME280;1033;52.560;13.374;2023-10-13T04:24:22;100664.66;;;14.10;100.00
67015;BME280;1033;52.560;13.374;2023-10-13T04:27:09;100652.94;;;14.10;100.00
67015;BME280;1033;52.560;13.374;2023-10-13T04:29:59;100660.69;;;14.24;100.00
67015;BME280;1033;52.560;13.374;2023-10-13T04:32:38;100650.59;;;14.13;100.00
67015;BME280;1033;52.560;13.374;2023-10-13T04:35:14;100643.03;;;14.15;100.00
67015;BME280;1033;52.560;13.374;2023-10-13T04:37:46;100639.66;;;14.31;100.00
67015;BME280;1033;52.560;13.374;2023-10-13T04:40:29;100635.41;;;14.35;100.00
67015;BME280;1033;52.560;13.374;2023-10-13T04:43:03;100632.06;;;14.33;100.00
67015;BME280;1033;52.560;13.374;2023-10-13T04:45:33;100632.53;;;14.30;100.00
67015;BME280;1033;52.560;13.374;2023-10-13T04:48:17;100635.41;;;14.35;100.00
67015;BME280;1033;52.560;13.374;2023-10-13T04:51:05;100626.06;;;14.43;100.00
67015;BME280;1033;52.560;13.374;2023-10-13T04:53:54;100621.66;;;14.30;100.00
67015;BME280;1033;52.560;13.374;2023-10-13T04:56:32;100622.97;;;14.28;100.00
67015;BME280;1033;52.560;13.374;2023-10-13T04:59:27;100623.47;;;14.37;100.00
67015;BME280;1033;52.560;13.374;2023-10-13T05:02:26;100623.31;;;14.31;100.00
67015;BME280;1033;52.560;13.374;2023-10-13T05:05:15;100618.69;;;14.32;100.00
67015;BME280;1033;52.560;13.374;2023-10-13T05:08:10;100615.31;;;14.37;100.00
67015;BME280;1033;52.560;13.374;2023-10-13T05:10:56;100620.63;;;14.43;100.00
67015;BME280;1033;52.560;13.374;2023-10-13T05:13:57;100623.34;;;14.43;100.00
67015;BME280;1033;52.560;13.374;2023-10-13T05:16:43;100620.06;;;14.53;100.00
67015;BME280;1033;52.560;13.374;2023-10-13T05:19:31;100609.66;;;14.50;100.00
67015;BME280;1033;52.560;13.374;2023-10-13T05:22:17;100613.56;;;14.54;100.00
67015;BME280;1033;52.560;13.374;2023-10-13T05:25:04;100611.31;;;14.62;100.00
67015;BME280;1033;52.560;13.374;2023-10-13T05:27:51;100610.25;;;14.63;100.00
67015;BME280;1033;52.560;13.374;2023-10-13T05:30:59;100613.56;;;14.65;100.00
67015;BME280;1033;52.560;13.374;2023-10-13T05:33:54;100611.56;;;14.61;100.00
67015;BME280;1033;52.560;13.374;2023-10-13T05:36:42;100610.25;;;14.63;100.00
67015;BME280;1033;52.560;13.374;2023-10-13T05:39:37;100608.59;;;14.74;100.00
67015;BME280;1033;52.560;13.374;2023-10-13T05:42:23;100617.72;;;14.68;100.00
67015;BME280;1033;52.560;13.374;2023-10-13T05:45:09;100599.47;;;14.68;100.00
67015;BME280;1033;52.560;13.374;2023-10-13T05:48:04;100606.94;;;14.61;100.00
67015;BME280;1033;52.560;13.374;2023-10-13T05:50:40;100608.69;;;14.67;100.00
67015;BME280;1033;52.560;13.374;2023-10-13T05:53:36;100596.41;;;14.65;100.00
67015;BME280;1033;52.560;13.374;2023-10-13T05:56:21;100592.97;;;14.69;100.00
67015;BME280;1033;52.560;13.374;2023-10-13T05:59:08;100598.88;;;14.78;100.00
67015;BME280;1033;52.560;13.374;2023-10-13T06:01:54;100594.50;;;14.77;100.00
67015;BME280;1033;52.560;13.374;2023-10-13T06:04:41;100603.75;;;14.99;100.00
67015;BME280;1033;52.560;13.374;2023-10-13T06:07:27;100606.00;;;15.14;100.00
67015;BME280;1033;52.560;13.374;2023-10-13T06:10:15;100591.97;;;15.22;100.00
67015;BME280;1033;52.560;13.374;2023-10-13T06:13:02;100591.97;;;15.34;100.00
67015;BME280;1033;52.560;13.374;2023-10-13T06:15:48;100579.72;;;15.48;100.00
67015;BME280;1033;52.560;13.374;2023-10-13T06:18:35;100583.41;;;15.42;100.00
67015;BME280;1033;52.560;13.374;2023-10-13T06:21:21;100580.41;;;15.55;100.00
67015;BME280;1033;52.560;13.374;2023-10-13T06:24:08;100574.41;;;15.53;100.00
67015;BME280;1033;52.560;13.374;2023-10-13T06:26:56;100576.72;;;15.61;100.00
67015;BME280;1033;52.560;13.374;2023-10-13T06:29:42;100576.28;;;15.52;100.00
67015;BME280;1033;52.560;13.374;2023-10-13T06:32:13;100583.16;;;15.55;100.00
67015;BME280;1033;52.560;13.374;2023-10-13T06:34:44;100580.91;;;15.52;100.00
67015;BME280;1033;52.560;13.374;2023-10-13T06:37:13;100585.88;;;15.55;100.00
67015;BME280;1033;52.560;13.374;2023-10-13T06:39:53;100586.72;;;15.44;100.00
67015;BME280;1033;52.560;13.374;2023-10-13T06:42:25;100578.28;;;15.45;100.00
67015;BME280;1033;52.560;13.374;2023-10-13T06:44:54;100576.88;;;15.43;100.00
67015;BME280;1033;52.560;13.374;2023-10-13T06:47:23;100576.22;;;15.64;100.00
67015;BME280;1033;52.560;13.374;2023-10-13T06:49:52;100582.19;;;15.61;100.00
67015;BME280;1033;52.560;13.374;2023-10-13T06:52:22;100581.97;;;15.62;100.00
67015;BME280;1033;52.560;13.374;2023-10-13T06:54:57;100573.16;;;15.89;100.00
67015;BME280;1033;52.560;13.374;2023-10-13T06:57:32;100577.50;;;16.01;100.00
67015;BME280;1033;52.560;13.374;2023-10-13T07:00:06;100572.97;;;16.24;100.00
67015;BME280;1033;52.560;13.374;2023-10-13T07:02:39;100574.50;;;16.31;100.00
67015;BME280;1033;52.560;13.374;2023-10-13T07:05:08;100577.13;;;16.43;100.00
67015;BME280;1033;52.560;13.374;2023-10-13T07:07:40;100573.50;;;16.54;100.00
67015;BME280;1033;52.560;13.374;2023-10-13T07:10:10;100571.09;;;16.74;100.00
67015;BME280;1033;52.560;13.374;2023-10-13T07:12:41;100570.75;;;17.09;100.00
67015;BME280;1033;52.560;13.374;2023-10-13T07:15:11;100575.06;;;17.22;100.00
67015;BME280;1033;52.560;13.374;2023-10-13T07:17:47;100584.28;;;17.37;100.00
67015;BME280;1033;52.560;13.374;2023-10-13T07:20:22;100575.19;;;17.32;100.00
67015;BME280;1033;52.560;13.374;2023-10-13T07:23:00;100577.59;;;17.28;100.00
67015;BME280;1033;52.560;13.374;2023-10-13T07:25:31;100579.13;;;17.41;100.00
67015;BME280;1033;52.560;13.374;2023-10-13T07:28:07;100569.66;;;17.27;100.00
67015;BME280;1033;52.560;13.374;2023-10-13T07:30:38;100575.75;;;17.34;100.00
67015;BME280;1033;52.560;13.374;2023-10-13T07:33:15;100570.94;;;17.41;100.00
67015;BME280;1033;52.560;13.374;2023-10-13T07:35:47;100557.13;;;17.31;100.00
67015;BME280;1033;52.560;13.374;2023-10-13T07:38:18;100558.44;;;17.28;100.00
67015;BME280;1033;52.560;13.374;2023-10-13T07:40:48;100559.91;;;17.36;100.00
67015;BME280;1033;52.560;13.374;2023-10-13T07:43:20;100548.78;;;17.43;100.00
67015;BME280;1033;52.560;13.374;2023-10-13T07:45:50;100553.22;;;17.49;100.00
67015;BME280;1033;52.560;13.374;2023-10-13T07:48:19;100557.00;;;17.64;100.00
67015;BME280;1033;52.560;13.374;2023-10-13T07:50:59;100556.81;;;17.71;100.00
67015;BME280;1033;52.560;13.374;2023-10-13T07:53:31;100554.63;;;18.00;100.00
67015;BME280;1033;52.560;13.374;2023-10-13T07:56:03;100547.81;;;18.02;100.00
67015;BME280;1033;52.560;13.374;2023-10-13T07:58:37;100554.16;;;18.08;100.00
67015;BME280;1033;52.560;13.374;2023-10-13T08:01:15;100546.69;;;17.98;100.00
67015;BME280;1033;52.560;13.374;2023-10-13T08:03:47;100542.44;;;18.12;100.00
67015;BME280;1033;52.560;13.374;2023-10-13T08:06:25;100550.88;;;18.11;100.00
67015;BME280;1033;52.560;13.374;2023-10-13T08:08:57;100538.94;;;17.90;100.00
67015;BME280;1033;52.560;13.374;2023-10-13T08:11:36;100548.59;;;17.98;100.00
67015;BME280;1033;52.560;13.374;2023-10-13T08:14:07;100540.56;;;18.18;100.00
67015;BME280;1033;52.560;13.374;2023-10-13T08:17:29;100538.53;;;18.40;100.00
67015;BME280;1033;52.560;13.374;2023-10-13T08:20:04;100541.25;;;18.35;100.00
67015;BME280;1033;52.560;13.374;2023-10-13T08:22:44;100544.03;;;18.40;100.00
67015;BME280;1033;52.560;13.374;2023-10-13T08:25:15;100533.34;;;18.76;100.00
67015;BME280;1033;52.560;13.374;2023-10-13T08:27:48;100530.91;;;18.79;100.00
67015;BME280;1033;52.560;13.374;2023-10-13T08:30:36;100525.44;;;18.84;100.00
67015;BME280;1033;52.560;13.374;2023-10-13T08:33:20;100523.59;;;18.95;100.00
67015;BME280;1033;52.560;13.374;2023-10-13T08:35:54;100523.03;;;18.88;100.00
67015;BME280;1033;52.560;13.374;2023-10-13T08:38:44;100531.25;;;18.88;99.50
67015;BME280;1033;52.560;13.374;2023-10-13T08:41:20;100531.78;;;18.90;99.33
67015;BME280;1033;52.560;13.374;2023-10-13T08:44:03;100532.59;;;18.85;100.00
67015;BME280;1033;52.560;13.374;2023-10-13T08:46:35;100509.28;;;18.83;100.00
67015;BME280;1033;52.560;13.374;2023-10-13T08:49:22;100505.22;;;18.95;98.98
67015;BME280;1033;52.560;13.374;2023-10-13T08:51:52;100498.34;;;18.93;99.63
67015;BME280;1033;52.560;13.374;2023-10-13T08:54:36;100496.72;;;18.92;99.26
67015;BME280;1033;52.560;13.374;2023-10-13T08:57:13;100500.53;;;18.91;99.46
67015;BME280;1033;52.560;13.374;2023-10-13T09:00:01;100500.97;;;18.67;100.00
67015;BME280;1033;52.560;13.374;2023-10-13T09:02:54;100491.56;;;18.53;100.00
67015;BME280;1033;52.560;13.374;2023-10-13T09:05:44;100496.75;;;18.55;100.00
67015;BME280;1033;52.560;13.374;2023-10-13T09:08:29;100474.84;;;18.55;100.00
67015;BME280;1033;52.560;13.374;2023-10-13T09:11:04;100493.22;;;18.59;100.00
67015;BME280;1033;52.560;13.374;2023-10-13T09:13:41;100486.69;;;18.65;100.00
67015;BME280;1033;52.560;13.374;2023-10-13T09:16:13;100485.88;;;18.65;100.00
67015;BME280;1033;52.560;13.374;2023-10-13T09:18:51;100484.78;;;18.66;100.00
67015;BME280;1033;52.560;13.374;2023-10-13T09:21:20;100480.66;;;18.63;100.00
67015;BME280;1033;52.560;13.374;2023-10-13T09:24:12;100482.94;;;18.77;100.00
67015;BME280;1033;52.560;13.374;2023-10-13T09:26:50;100467.47;;;18.60;100.00
67015;BME280;1033;52.560;13.374;2023-10-13T09:29:23;100475.16;;;18.58;100.00
67015;BME280;1033;52.560;13.374;2023-10-13T09:32:06;100458.06;;;18.51;100.00
67015;BME280;1033;52.560;13.374;2023-10-13T09:34:41;100457.25;;;18.51;100.00
67015;BME280;1033;52.560;13.374;2023-10-13T09:37:12;100455.16;;;18.58;100.00
67015;BME280;1033;52.560;13.374;2023-10-13T09:39:49;100444.56;;;18.77;100.00
67015;BME280;1033;52.560;13.374;2023-10-13T09:42:20;100441.81;;;18.77;100.00
67015;BME280;1033;52.560;13.374;2023-10-13T09:44:51;100430.91;;;18.92;100.00
67015;BME280;1033;52.560;13.374;2023-10-13T09:47:23;100423.56;;;19.18;100.00
67015;BME280;1033;52.560;13.374;2023-10-13T09:50:01;100425.22;;;19.19;100.00
67015;BME280;1033;52.560;13.374;2023-10-13T09:52:36;100421.63;;;19.08;100.00
67015;BME280;1033;52.560;13.374;2023-10-13T09:55:26;100415.53;;;18.86;100.00
67015;BME280;1033;52.560;13.374;2023-10-13T09:58:02;100408.41;;;18.85;100.00
67015;BME280;1033;52.560;13.374;2023-10-13T10:00:43;100390.78;;;18.71;100.00
67015;BME280;1033;52.560;13.374;2023-10-13T10:03:17;100395.13;;;18.56;100.00
67015;BME280;1033;52.560;13.374;2023-10-13T10:06:07;100402.16;;;18.47;100.00
67015;BME280;1033;52.560;13.374;2023-10-13T10:08:44;100384.44;;;18.60;100.00
67015;BME280;1033;52.560;13.374;2023-10-13T10:14:28;100388.63;;;18.73;100.00
67015;BME280;1033;52.560;13.374;2023-10-13T10:17:05;100392.50;;;18.82;100.00
67015;BME280;1033;52.560;13.374;2023-10-13T10:19:47;100385.94;;;18.88;100.00
67015;BME280;1033;52.560;13.374;2023-10-13T10:22:27;100387.50;;;18.74;100.00
67015;BME280;1033;52.560;13.374;2023-10-13T10:24:59;100378.44;;;18.63;100.00
67015;BME280;1033;52.560;13.374;2023-10-13T10:27:30;100379.63;;;18.82;100.00
67015;BME280;1033;52.560;13.374;2023-10-13T10:30:00;100371.66;;;18.86;100.00
67015;BME280;1033;52.560;13.374;2023-10-13T10:32:35;100387.00;;;18.82;100.00
67015;BME280;1033;52.560;13.374;2023-10-13T10:35:05;100380.06;;;18.64;100.00
67015;BME280;1033;52.560;13.374;2023-10-13T10:37:38;100377.06;;;18.65;100.00
67015;BME280;1033;52.560;13.374;2023-10-13T10:40:14;100373.19;;;18.56;100.00
67015;BME280;1033;52.560;13.374;2023-10-13T10:43:00;100383.50;;;18.39;100.00
67015;BME280;1033;52.560;13.374;2023-10-13T10:45:48;100364.31;;;18.34;100.00
67015;BME280;1033;52.560;13.374;2023-10-13T10:48:18;100350.28;;;18.31;100.00
67015;BME280;1033;52.560;13.374;2023-10-13T10:50:53;100364.31;;;18.34;100.00
67015;BME280;1033;52.560;13.374;2023-10-13T10:53:24;100340.44;;;18.24;100.00
67015;BME280;1033;52.560;13.374;2023-10-13T10:56:07;100347.59;;;18.41;100.00
67015;BME280;1033;52.560;13.374;2023-10-13T10:58:47;100345.94;;;18.40;100.00
67015;BME280;1033;52.560;13.374;2023-10-13T11:01:21;100336.66;;;18.46;100.00
67015;BME280;1033;52.560;13.374;2023-10-13T11:03:54;100335.94;;;18.60;100.00
67015;BME280;1033;52.560;13.374;2023-10-13T11:06:25;100309.69;;;18.75;100.00
67015;BME280;1033;52.560;13.374;2023-10-13T11:09:06;100319.00;;;18.79;100.00
67015;BME280;1033;52.560;13.374;2023-10-13T11:11:46;100324.00;;;18.92;100.00
67015;BME280;1033;52.560;13.374;2023-10-13T11:14:23;100319.06;;;19.04;100.00
67015;BME280;1033;52.560;13.374;2023-10-13T11:16:54;100297.41;;;18.97;100.00
67015;BME280;1033;52.560;13.374;2023-10-13T11:19:34;100313.03;;;18.97;100.00
67015;BME280;1033;52.560;13.374;2023-10-13T11:22:13;100313.59;;;19.04;100.00
67015;BME280;1033;52.560;13.374;2023-10-13T11:24:58;100299.91;;;19.19;100.00
67015;BME280;1033;52.560;13.374;2023-10-13T11:27:31;100297.97;;;19.15;100.00
67015;BME280;1033;52.560;13.374;2023-10-13T11:30:17;100305.63;;;19.13;100.00
67015;BME280;1033;52.560;13.374;2023-10-13T11:32:58;100311.69;;;19.09;100.00
67015;BME280;1033;52.560;13.374;2023-10-13T11:35:27;100305.38;;;19.14;100.00
67015;BME280;1033;52.560;13.374;2023-10-13T11:38:16;100295.50;;;19.33;100.00
67015;BME280;1033;52.560;13.374;2023-10-13T11:40:55;100276.56;;;19.27;100.00
67015;BME280;1033;52.560;13.374;2023-10-13T11:43:45;100280.13;;;19.37;100.00
67015;BME280;1033;52.560;13.374;2023-10-13T11:46:31;100268.94;;;19.44;100.00
67015;BME280;1033;52.560;13.374;2023-10-13T11:49:17;100268.66;;;19.45;100.00
67015;BME280;1033;52.560;13.374;2023-10-13T11:51:48;100277.97;;;19.44;100.00
67015;BME280;1033;52.560;13.374;2023-10-13T11:54:19;100271.09;;;19.47;100.00
67015;BME280;1033;52.560;13.374;2023-10-13T11:56:51;100266.44;;;19.63;100.00
67015;BME280;1033;52.560;13.374;2023-10-13T11:59:20;100260.09;;;19.67;100.00
67015;BME280;1033;52.560;13.374;2023-10-13T12:01:54;100254.88;;;19.76;100.00
67015;BME280;1033;52.560;13.374;2023-10-13T12:04:41;100238.41;;;19.66;100.00
67015;BME280;1033;52.560;13.374;2023-10-13T12:07:16;100246.66;;;19.71;100.00
67015;BME280;1033;52.560;13.374;2023-10-13T12:09:48;100235.63;;;19.91;100.00
67015;BME280;1033;52.560;13.374;2023-10-13T12:12:32;100235.03;;;20.04;100.00
67015;BME280;1033;52.560;13.374;2023-10-13T12:15:08;100235.03;;;20.04;100.00
67015;BME280;1033;52.560;13.374;2023-10-13T12:17:53;100230.31;;;20.15;100.00
67015;BME280;1033;52.560;13.374;2023-10-13T12:20:27;100227.84;;;20.13;100.00
67015;BME280;1033;52.560;13.374;2023-10-13T12:23:01;100223.47;;;20.07;100.00
67015;BME280;1033;52.560;13.374;2023-10-13T12:25:43;100214.91;;;20.19;100.00
67015;BME280;1033;52.560;13.374;2023-10-13T12:28:30;100226.19;;;20.17;100.00
67015;BME280;1033;52.560;13.374;2023-10-13T12:31:05;100212.94;;;20.29;100.00
67015;BME280;1033;52.560;13.374;2023-10-13T12:33:38;100210.19;;;20.34;100.00
67015;BME280;1033;52.560;13.374;2023-10-13T12:36:08;100201.94;;;20.34;100.00
67015;BME280;1033;52.560;13.374;2023-10-13T12:38:42;100203.84;;;20.29;100.00
67015;BME280;1033;52.560;13.374;2023-10-13T12:41:40;100205.47;;;20.45;100.00
67015;BME280;1033;52.560;13.374;2023-10-13T12:44:28;100192.25;;;20.52;99.66
67015;BME280;1033;52.560;13.374;2023-10-13T12:47:17;100188.59;;;20.62;99.13
67015;BME280;1033;52.560;13.374;2023-10-13T12:50:04;100193.41;;;20.80;97.35
67015;BME280;1033;52.560;13.374;2023-10-13T12:52:41;100188.44;;;20.82;96.59
67015;BME280;1033;52.560;13.374;2023-10-13T12:55:13;100179.59;;;20.90;96.21
67015;BME280;1033;52.560;13.374;2023-10-13T12:57:46;100178.97;;;20.98;95.75
67015;BME280;1033;52.560;13.374;2023-10-13T13:00:17;100177.06;;;20.94;96.37
67015;BME280;1033;52.560;13.374;2023-10-13T13:02:52;100158.00;;;21.02;95.26
67015;BME280;1033;52.560;13.374;2023-10-13T13:05:24;100145.31;;;21.06;95.01
67015;BME280;1033;52.560;13.374;2023-10-13T13:07:57;100147.91;;;21.27;94.56
67015;BME280;1033;52.560;13.374;2023-10-13T13:10:26;100144.44;;;21.16;94.02
67015;BME280;1033;52.560;13.374;2023-10-13T13:13:04;100134.88;;;21.08;94.93
67015;BME280;1033;52.560;13.374;2023-10-13T13:15:34;100133.63;;;21.24;94.35
67015;BME280;1033;52.560;13.374;2023-10-13T13:18:03;100133.53;;;21.35;92.33
67015;BME280;1033;52.560;13.374;2023-10-13T13:20:39;100130.31;;;21.51;91.87
67015;BME280;1033;52.560;13.374;2023-10-13T13:23:20;100121.66;;;21.63;91.19
67015;BME280;1033;52.560;13.374;2023-10-13T13:25:54;100126.16;;;21.54;90.57
67015;BME280;1033;52.560;13.374;2023-10-13T13:28:25;100126.00;;;21.64;89.74
67015;BME280;1033;52.560;13.374;2023-10-13T13:30:58;100126.97;;;21.78;88.61
67015;BME280;1033;52.560;13.374;2023-10-13T13:33:26;100114.06;;;21.97;87.15